createdAt,value
2023-05-19T00:00:33.857Z,940.58
2023-05-19T00:01:34.782Z,940.58
2023-05-19T00:02:35.385Z,940.59
2023-05-19T00:03:35.619Z,940.54
2023-05-19T00:04:36.478Z,940.6
2023-05-19T00:05:37.519Z,940.57
2023-05-19T00:06:38.186Z,940.57
2023-05-19T00:07:38.791Z,940.56
2023-05-19T00:08:39.465Z,940.55
2023-05-19T00:09:39.766Z,940.57
2023-05-19T00:10:40.464Z,940.55
2023-05-19T00:11:40.903Z,940.51
2023-05-19T00:12:41.389Z,940.54
2023-05-19T00:13:41.808Z,940.51
2023-05-19T00:14:42.733Z,940.49
2023-05-19T00:15:43.460Z,940.48
2023-05-19T00:16:44.078Z,940.47
2023-05-19T00:17:44.258Z,940.48
2023-05-19T00:18:45.235Z,940.49
2023-05-19T00:19:45.968Z,940.5
2023-05-19T00:20:47.038Z,940.48
2023-05-19T00:21:47.837Z,940.45
2023-05-19T00:22:48.335Z,940.43
2023-05-19T00:23:49.066Z,940.45
2023-05-19T00:24:49.965Z,940.48
2023-05-19T00:25:50.880Z,940.47
2023-05-19T00:26:51.323Z,940.5
2023-05-19T00:27:51.662Z,940.47
2023-05-19T00:28:52.088Z,940.51
2023-05-19T00:29:53.285Z,940.48
2023-05-19T00:30:53.802Z,940.45
2023-05-19T00:31:54.029Z,940.43
2023-05-19T00:32:55.126Z,940.45
2023-05-19T00:33:55.221Z,940.44
2023-05-19T00:34:56.317Z,940.43
2023-05-19T00:35:57.150Z,940.4
2023-05-19T00:36:57.859Z,940.42
2023-05-19T00:37:58.929Z,940.44
2023-05-19T00:38:59.610Z,940.44
2023-05-19T00:40:00.295Z,940.41
2023-05-19T00:41:01.065Z,940.46
2023-05-19T00:42:01.451Z,940.44
2023-05-19T00:43:02.148Z,940.46
2023-05-19T00:44:02.427Z,940.43
2023-05-19T00:45:03.143Z,940.46
2023-05-19T00:46:04.012Z,940.4
2023-05-19T00:47:04.901Z,940.41
2023-05-19T00:48:05.603Z,940.44
2023-05-19T00:49:06.016Z,940.41
2023-05-19T00:50:06.677Z,940.42
2023-05-19T00:51:07.467Z,940.43
2023-05-19T00:52:07.909Z,940.4
2023-05-19T00:53:08.449Z,940.41
2023-05-19T00:54:08.727Z,940.41
2023-05-19T00:55:09.632Z,940.39
2023-05-19T00:56:10.641Z,940.38
2023-05-19T00:57:10.747Z,940.4
2023-05-19T00:58:11.013Z,940.36
2023-05-19T00:59:11.751Z,940.34
2023-05-19T01:00:12.219Z,940.33
2023-05-19T01:01:13.125Z,940.35
2023-05-19T01:02:13.893Z,940.36
2023-05-19T01:03:14.113Z,940.33
2023-05-19T01:04:15.106Z,940.31
2023-05-19T01:05:15.403Z,940.34
2023-05-19T01:06:15.641Z,940.31
2023-05-19T01:07:16.053Z,940.31
2023-05-19T01:08:16.579Z,940.32
2023-05-19T01:09:17.317Z,940.31
2023-05-19T01:10:18.054Z,940.33
2023-05-19T01:11:18.830Z,940.31
2023-05-19T01:12:19.399Z,940.32
2023-05-19T01:13:19.855Z,940.29
2023-05-19T01:14:20.320Z,940.3
2023-05-19T01:15:21.237Z,940.29
2023-05-19T01:16:21.978Z,940.33
2023-05-19T01:17:23.049Z,940.3
2023-05-19T01:18:23.644Z,940.33
2023-05-19T01:19:24.177Z,940.32
2023-05-19T01:20:24.666Z,940.3
2023-05-19T01:21:25.456Z,940.32
2023-05-19T01:22:25.856Z,940.29
2023-05-19T01:23:26.359Z,940.27
2023-05-19T01:24:26.454Z,940.28
2023-05-19T01:25:26.926Z,940.27
2023-05-19T01:26:27.439Z,940.23
2023-05-19T01:27:28.385Z,940.24
2023-05-19T01:28:28.877Z,940.25
2023-05-19T01:29:29.558Z,940.21
2023-05-19T01:30:30.771Z,940.26
2023-05-19T01:31:31.633Z,940.26
2023-05-19T01:32:32.482Z,940.26
2023-05-19T01:33:32.596Z,940.24
2023-05-19T01:34:33.511Z,940.27
2023-05-19T01:35:33.775Z,940.23
2023-05-19T01:36:34.741Z,940.27
2023-05-19T01:37:35.654Z,940.26
2023-05-19T01:38:36.575Z,940.25
2023-05-19T01:39:37.477Z,940.25
2023-05-19T01:40:38.344Z,940.25
2023-05-19T01:41:39.094Z,940.28
2023-05-19T01:42:39.762Z,940.23
2023-05-19T01:43:40.345Z,940.28
2023-05-19T01:44:40.826Z,940.27
2023-05-19T01:45:41.969Z,940.25
2023-05-19T01:46:42.401Z,940.21
2023-05-19T01:47:43.299Z,940.22
2023-05-19T01:48:43.804Z,940.25
2023-05-19T01:49:43.916Z,940.21
2023-05-19T01:50:44.775Z,940.21
2023-05-19T01:51:45.004Z,940.21
2023-05-19T01:52:45.343Z,940.23
2023-05-19T01:53:45.921Z,940.22
2023-05-19T01:54:46.477Z,940.23
2023-05-19T01:55:46.943Z,940.18
2023-05-19T01:56:47.848Z,940.21
2023-05-19T01:57:48.517Z,940.22
2023-05-19T01:58:48.977Z,940.21
2023-05-19T01:59:49.448Z,940.18
2023-05-19T02:00:49.992Z,940.19
2023-05-19T02:01:50.593Z,940.21
2023-05-19T02:02:51.336Z,940.19
2023-05-19T02:03:51.523Z,940.2
2023-05-19T02:04:52.366Z,940.18
2023-05-19T02:05:53.098Z,940.18
2023-05-19T02:06:53.243Z,940.19
2023-05-19T02:07:53.537Z,940.2
2023-05-19T02:08:54.445Z,940.21
2023-05-19T02:09:55.106Z,940.18
2023-05-19T02:10:55.576Z,940.19
2023-05-19T02:11:56.305Z,940.18
2023-05-19T02:12:57.326Z,940.19
2023-05-19T02:13:58.255Z,940.16
2023-05-19T02:14:58.758Z,940.16
2023-05-19T02:15:59.458Z,940.16
2023-05-19T02:16:59.598Z,940.16
2023-05-19T02:18:00.645Z,940.15
2023-05-19T02:19:00.800Z,940.11
2023-05-19T02:20:01.618Z,940.16
2023-05-19T02:21:02.055Z,940.15
2023-05-19T02:22:02.456Z,940.15
2023-05-19T02:23:02.689Z,940.15
2023-05-19T02:24:03.553Z,940.14
2023-05-19T02:25:04.045Z,940.15
2023-05-19T02:26:04.531Z,940.12
2023-05-19T02:27:05.445Z,940.15
2023-05-19T02:28:06.179Z,940.12
2023-05-19T02:29:06.847Z,940.09
2023-05-19T02:30:07.733Z,940.1
2023-05-19T02:31:08.860Z,940.09
2023-05-19T02:32:09.652Z,940.09
2023-05-19T02:33:10.173Z,940.08
2023-05-19T02:34:10.812Z,940.07
2023-05-19T02:35:11.100Z,940.09
2023-05-19T02:36:11.617Z,940.05
2023-05-19T02:37:11.772Z,940.07
2023-05-19T02:38:12.239Z,940.06
2023-05-19T02:39:12.730Z,940.06
2023-05-19T02:40:13.642Z,940.05
2023-05-19T02:41:13.937Z,940.04
2023-05-19T02:42:14.865Z,940.05
2023-05-19T02:43:15.851Z,940.03
2023-05-19T02:44:16.537Z,940.03
2023-05-19T02:45:17.457Z,940.08
2023-05-19T02:46:18.142Z,940.04
2023-05-19T02:47:19.105Z,940.06
2023-05-19T02:48:19.752Z,940.06
2023-05-19T02:49:20.844Z,940.03
2023-05-19T02:50:21.521Z,940.04
2023-05-19T02:51:22.540Z,940.03
2023-05-19T02:52:23.508Z,940.03
2023-05-19T02:53:23.785Z,939.94
2023-05-19T02:54:24.481Z,939.96
2023-05-19T02:55:25.370Z,939.98
2023-05-19T02:56:26.078Z,939.96
2023-05-19T02:57:27.006Z,939.97
2023-05-19T02:58:27.762Z,939.97
2023-05-19T02:59:28.245Z,939.96
2023-05-19T03:00:29.139Z,939.95
2023-05-19T03:01:30.080Z,939.94
2023-05-19T03:02:30.245Z,939.99
2023-05-19T03:03:30.416Z,939.95
2023-05-19T03:04:30.702Z,939.95
2023-05-19T03:05:31.379Z,939.94
2023-05-19T03:06:31.654Z,939.96
2023-05-19T03:07:32.690Z,939.93
2023-05-19T03:08:33.185Z,939.91
2023-05-19T03:09:33.581Z,939.91
2023-05-19T03:10:34.308Z,939.89
2023-05-19T03:11:34.420Z,939.89
2023-05-19T03:12:35.144Z,939.87
2023-05-19T03:13:35.944Z,939.89
2023-05-19T03:14:36.836Z,939.87
2023-05-19T03:15:37.405Z,939.86
2023-05-19T03:16:38.414Z,939.85
2023-05-19T03:17:38.654Z,939.86
2023-05-19T03:18:39.018Z,939.82
2023-05-19T03:19:39.396Z,939.86
2023-05-19T03:20:41.626Z,939.87
2023-05-19T03:21:40.598Z,939.85
2023-05-19T03:22:41.245Z,939.83
2023-05-19T03:23:42.241Z,939.86
2023-05-19T03:24:42.724Z,939.86
2023-05-19T03:25:43.006Z,939.82
2023-05-19T03:26:43.951Z,939.84
2023-05-19T03:27:44.672Z,939.85
2023-05-19T03:28:45.367Z,939.84
2023-05-19T03:29:46.457Z,939.87
2023-05-19T03:30:46.975Z,939.88
2023-05-19T03:31:47.492Z,939.88
2023-05-19T03:32:48.589Z,939.84
2023-05-19T03:33:49.420Z,939.88
2023-05-19T03:34:49.539Z,939.86
2023-05-19T03:35:49.867Z,939.86
2023-05-19T03:36:50.736Z,939.9
2023-05-19T03:37:51.679Z,939.88
2023-05-19T03:38:52.386Z,939.87
2023-05-19T03:39:53.071Z,939.88
2023-05-19T03:40:53.811Z,939.88
2023-05-19T03:41:54.133Z,939.87
2023-05-19T03:42:54.873Z,939.88
2023-05-19T03:43:55.274Z,939.86
2023-05-19T03:44:55.964Z,939.84
2023-05-19T03:45:56.806Z,939.86
2023-05-19T03:46:57.829Z,939.86
2023-05-19T03:47:58.172Z,939.86
2023-05-19T03:48:59.239Z,939.82
2023-05-19T03:49:59.947Z,939.89
2023-05-19T03:51:00.664Z,939.88
2023-05-19T03:52:01.349Z,939.86
2023-05-19T03:53:01.603Z,939.85
2023-05-19T03:54:01.986Z,939.9
2023-05-19T03:55:02.860Z,939.91
2023-05-19T03:56:03.168Z,939.97
2023-05-19T03:57:04.083Z,939.92
2023-05-19T03:58:05.031Z,939.94
2023-05-19T03:59:05.577Z,939.94
2023-05-19T04:00:06.064Z,939.97
2023-05-19T04:01:06.841Z,939.95
2023-05-19T04:02:08.288Z,939.94
2023-05-19T04:03:07.652Z,939.99
2023-05-19T04:04:08.191Z,939.95
2023-05-19T04:05:08.845Z,939.94
2023-05-19T04:06:09.616Z,939.96
2023-05-19T04:07:10.273Z,939.91
2023-05-19T04:08:11.076Z,939.94
2023-05-19T04:09:11.744Z,939.94
2023-05-19T04:10:12.241Z,939.91
2023-05-19T04:11:12.729Z,939.85
2023-05-19T04:12:13.602Z,939.88
2023-05-19T04:13:14.316Z,939.86
2023-05-19T04:14:15.179Z,939.88
2023-05-19T04:15:16.275Z,939.87
2023-05-19T04:16:17.063Z,939.83
2023-05-19T04:17:17.744Z,939.86
2023-05-19T04:18:17.958Z,939.85
2023-05-19T04:19:18.469Z,939.8
2023-05-19T04:20:18.547Z,939.85
2023-05-19T04:21:18.707Z,939.86
2023-05-19T04:22:19.595Z,939.87
2023-05-19T04:23:20.537Z,939.84
2023-05-19T04:24:21.380Z,939.83
2023-05-19T04:25:22.065Z,939.85
2023-05-19T04:26:22.752Z,939.84
2023-05-19T04:27:23.426Z,939.86
2023-05-19T04:28:24.357Z,939.88
2023-05-19T04:29:25.263Z,939.89
2023-05-19T04:30:25.980Z,939.85
2023-05-19T04:31:26.686Z,939.88
2023-05-19T04:32:27.073Z,939.88
2023-05-19T04:33:27.916Z,939.84
2023-05-19T04:34:28.461Z,939.84
2023-05-19T04:35:28.932Z,939.86
2023-05-19T04:36:29.844Z,939.85
2023-05-19T04:37:30.556Z,939.88
2023-05-19T04:38:31.513Z,939.91
2023-05-19T04:39:32.432Z,939.88
2023-05-19T04:40:33.287Z,939.87
2023-05-19T04:41:33.506Z,939.87
2023-05-19T04:42:34.208Z,939.84
2023-05-19T04:43:35.118Z,939.86
2023-05-19T04:44:35.925Z,939.87
2023-05-19T04:45:36.889Z,939.88
2023-05-19T04:46:37.102Z,939.9
2023-05-19T04:47:37.729Z,939.89
2023-05-19T04:48:38.287Z,939.9
2023-05-19T04:49:38.468Z,939.94
2023-05-19T04:50:39.164Z,939.93
2023-05-19T04:51:39.467Z,939.88
2023-05-19T04:52:39.753Z,939.91
2023-05-19T04:53:40.691Z,939.92
2023-05-19T04:54:41.347Z,939.94
2023-05-19T04:55:42.028Z,939.9
2023-05-19T04:56:42.495Z,939.93
2023-05-19T04:57:42.965Z,939.9
2023-05-19T04:58:43.854Z,939.87
2023-05-19T04:59:44.168Z,939.84
2023-05-19T05:00:45.135Z,939.87
2023-05-19T05:01:45.432Z,939.87
2023-05-19T05:02:45.778Z,939.87
2023-05-19T05:03:45.917Z,939.89
2023-05-19T05:04:46.389Z,939.91
2023-05-19T05:05:46.924Z,939.88
2023-05-19T05:06:47.415Z,939.9
2023-05-19T05:07:48.189Z,939.86
2023-05-19T05:08:48.972Z,939.85
2023-05-19T05:09:49.673Z,939.86
2023-05-19T05:10:50.368Z,939.85
2023-05-19T05:11:51.097Z,939.85
2023-05-19T05:12:52.001Z,939.83
2023-05-19T05:13:52.101Z,939.84
2023-05-19T05:14:52.652Z,939.88
2023-05-19T05:15:53.136Z,939.87
2023-05-19T05:16:53.610Z,939.88
2023-05-19T05:17:54.347Z,939.9
2023-05-19T05:18:54.903Z,939.86
2023-05-19T05:19:55.632Z,939.86
2023-05-19T05:20:56.583Z,939.86
2023-05-19T05:21:57.074Z,939.88
2023-05-19T05:22:57.760Z,939.88
2023-05-19T05:23:57.966Z,939.88
2023-05-19T05:24:58.552Z,939.81
2023-05-19T05:25:59.270Z,939.81
2023-05-19T05:26:59.758Z,939.85
2023-05-19T05:28:00.133Z,939.79
2023-05-19T05:29:00.812Z,939.82
2023-05-19T05:30:01.524Z,939.81
2023-05-19T05:31:02.030Z,939.8
2023-05-19T05:32:03.031Z,939.8
2023-05-19T05:33:03.884Z,939.77
2023-05-19T05:34:03.940Z,939.75
2023-05-19T05:35:04.997Z,939.77
2023-05-19T05:36:05.528Z,939.75
2023-05-19T05:37:06.051Z,939.79
2023-05-19T05:38:06.689Z,939.77
2023-05-19T05:39:07.681Z,939.82
2023-05-19T05:40:08.383Z,939.83
2023-05-19T05:41:09.234Z,939.78
2023-05-19T05:42:10.152Z,939.82
2023-05-19T05:43:10.925Z,939.78
2023-05-19T05:44:11.926Z,939.79
2023-05-19T05:45:12.667Z,939.78
2023-05-19T05:46:12.966Z,939.81
2023-05-19T05:47:13.676Z,939.85
2023-05-19T05:48:14.403Z,939.79
2023-05-19T05:49:14.566Z,939.86
2023-05-19T05:50:15.506Z,939.85
2023-05-19T05:51:16.022Z,939.83
2023-05-19T05:52:16.509Z,939.87
2023-05-19T05:53:17.464Z,939.84
2023-05-19T05:54:17.661Z,939.83
2023-05-19T05:55:18.059Z,939.84
2023-05-19T05:56:18.848Z,939.87
2023-05-19T05:57:19.536Z,939.87
2023-05-19T05:58:20.351Z,939.85
2023-05-19T05:59:21.001Z,939.89
2023-05-19T06:00:21.917Z,939.88
2023-05-19T06:01:22.123Z,939.87
2023-05-19T06:02:22.375Z,939.89
2023-05-19T06:03:22.560Z,939.89
2023-05-19T06:04:22.640Z,939.89
2023-05-19T06:05:23.003Z,939.89
2023-05-19T06:06:23.987Z,939.85
2023-05-19T06:07:24.916Z,939.85
2023-05-19T06:08:25.212Z,939.86
2023-05-19T06:09:26.210Z,939.88
2023-05-19T06:10:27.108Z,939.88
2023-05-19T06:11:27.727Z,939.85
2023-05-19T06:12:28.440Z,939.88
2023-05-19T06:13:28.965Z,939.84
2023-05-19T06:14:29.857Z,939.84
2023-05-19T06:15:30.442Z,939.84
2023-05-19T06:16:30.688Z,939.81
2023-05-19T06:17:31.074Z,939.8
2023-05-19T06:18:31.272Z,939.82
2023-05-19T06:19:32.202Z,939.82
2023-05-19T06:20:32.667Z,939.87
2023-05-19T06:21:33.258Z,939.81
2023-05-19T06:22:33.459Z,939.82
2023-05-19T06:23:34.133Z,939.84
2023-05-19T06:24:34.361Z,939.86
2023-05-19T06:25:35.159Z,939.84
2023-05-19T06:26:35.865Z,939.89
2023-05-19T06:27:36.282Z,939.85
2023-05-19T06:28:36.846Z,939.87
2023-05-19T06:29:37.768Z,939.87
2023-05-19T06:30:38.461Z,939.88
2023-05-19T06:31:38.813Z,939.91
2023-05-19T06:32:39.337Z,939.92
2023-05-19T06:33:40.073Z,939.94
2023-05-19T06:34:41.052Z,939.94
2023-05-19T06:35:41.325Z,939.94
2023-05-19T06:36:42.056Z,939.93
2023-05-19T06:37:42.342Z,939.94
2023-05-19T06:38:43.047Z,939.94
2023-05-19T06:39:43.476Z,939.97
2023-05-19T06:40:44.167Z,939.98
2023-05-19T06:41:44.460Z,939.97
2023-05-19T06:42:45.327Z,940
2023-05-19T06:43:45.690Z,939.98
2023-05-19T06:44:46.610Z,939.97
2023-05-19T06:45:47.155Z,939.99
2023-05-19T06:46:47.569Z,939.97
2023-05-19T06:47:47.692Z,939.99
2023-05-19T06:48:48.678Z,939.96
2023-05-19T06:49:49.427Z,939.93
2023-05-19T06:50:50.268Z,939.95
2023-05-19T06:51:51.216Z,939.98
2023-05-19T06:52:52.174Z,939.97
2023-05-19T06:53:52.458Z,939.99
2023-05-19T06:54:52.642Z,940.02
2023-05-19T06:56:00.714Z,939.96
2023-05-19T06:57:01.406Z,939.97
2023-05-19T06:58:01.944Z,939.92
2023-05-19T06:59:02.482Z,940
2023-05-19T07:00:02.663Z,939.97
2023-05-19T07:01:03.233Z,940.02
2023-05-19T07:02:03.420Z,940.02
2023-05-19T07:03:04.320Z,940.03
2023-05-19T07:04:05.058Z,940.04
2023-05-19T07:05:05.265Z,940.02
2023-05-19T07:06:08.034Z,940.02
2023-05-19T07:07:06.826Z,940.03
2023-05-19T07:08:07.481Z,940.05
2023-05-19T07:09:08.371Z,940.04
2023-05-19T07:10:09.183Z,940.02
2023-05-19T07:11:09.419Z,940.04
2023-05-19T07:12:10.358Z,940.02
2023-05-19T07:13:10.638Z,940.03
2023-05-19T07:14:10.993Z,940.01
2023-05-19T07:15:11.691Z,940.02
2023-05-19T07:16:12.538Z,939.98
2023-05-19T07:17:12.740Z,940.01
2023-05-19T07:18:13.112Z,940.01
2023-05-19T07:19:13.669Z,940.04
2023-05-19T07:20:14.292Z,940.04
2023-05-19T07:21:14.651Z,940.06
2023-05-19T07:22:14.728Z,940.05
2023-05-19T07:23:16.693Z,940.02
2023-05-19T07:24:15.258Z,940.03
2023-05-19T07:25:16.349Z,940.05
2023-05-19T07:26:17.022Z,940.04
2023-05-19T07:27:17.810Z,940.03
2023-05-19T07:28:18.484Z,939.99
2023-05-19T07:29:18.984Z,939.99
2023-05-19T07:30:19.900Z,939.95
2023-05-19T07:31:20.277Z,939.92
2023-05-19T07:32:20.884Z,939.98
2023-05-19T07:33:21.320Z,939.97
2023-05-19T07:34:21.825Z,939.95
2023-05-19T07:35:22.813Z,939.93
2023-05-19T07:36:23.197Z,939.96
2023-05-19T07:37:24.101Z,939.96
2023-05-19T07:38:24.206Z,939.94
2023-05-19T07:39:25.035Z,939.97
2023-05-19T07:40:25.441Z,939.97
2023-05-19T07:41:25.708Z,939.96
2023-05-19T07:42:26.235Z,939.93
2023-05-19T07:43:26.552Z,939.97
2023-05-19T07:44:27.264Z,939.93
2023-05-19T07:45:27.988Z,939.93
2023-05-19T07:46:29.214Z,939.94
2023-05-19T07:47:29.287Z,939.97
2023-05-19T07:48:29.943Z,939.9
2023-05-19T07:49:30.884Z,939.91
2023-05-19T07:50:31.047Z,939.9
2023-05-19T07:51:31.237Z,939.89
2023-05-19T07:52:31.920Z,939.91
2023-05-19T07:53:32.445Z,939.9
2023-05-19T07:54:32.749Z,939.94
2023-05-19T07:55:33.042Z,939.89
2023-05-19T07:56:33.722Z,939.96
2023-05-19T07:57:34.314Z,939.96
2023-05-19T07:58:35.218Z,939.95
2023-05-19T07:59:35.520Z,939.96
2023-05-19T08:00:36.426Z,939.97
2023-05-19T08:01:37.176Z,939.95
2023-05-19T08:02:37.743Z,939.98
2023-05-19T08:03:38.207Z,939.94
2023-05-19T08:04:38.704Z,939.95
2023-05-19T08:05:39.098Z,939.94
2023-05-19T08:06:39.938Z,939.92
2023-05-19T08:07:40.205Z,939.93
2023-05-19T08:08:40.902Z,939.95
2023-05-19T08:09:41.629Z,939.92
2023-05-19T08:10:41.925Z,939.92
2023-05-19T08:11:42.858Z,939.87
2023-05-19T08:12:43.755Z,939.86
2023-05-19T08:13:44.261Z,939.89
2023-05-19T08:14:44.979Z,939.85
2023-05-19T08:15:45.295Z,939.86
2023-05-19T08:16:46.221Z,939.86
2023-05-19T08:17:47.183Z,939.82
2023-05-19T08:18:48.182Z,939.87
2023-05-19T08:19:48.922Z,939.87
2023-05-19T08:20:49.050Z,939.88
2023-05-19T08:21:50.114Z,939.86
2023-05-19T08:22:51.016Z,939.93
2023-05-19T08:23:51.951Z,939.91
2023-05-19T08:24:52.186Z,939.88
2023-05-19T08:25:53.098Z,939.85
2023-05-19T08:26:53.653Z,939.86
2023-05-19T08:27:54.407Z,939.88
2023-05-19T08:28:54.968Z,939.89
2023-05-19T08:29:55.505Z,939.89
2023-05-19T08:30:56.339Z,939.9
2023-05-19T08:31:56.492Z,939.91
2023-05-19T08:32:57.121Z,939.87
2023-05-19T08:33:57.940Z,939.91
2023-05-19T08:34:58.682Z,939.91
2023-05-19T08:35:59.563Z,939.91
2023-05-19T08:37:00.042Z,939.91
2023-05-19T08:38:00.749Z,939.93
2023-05-19T08:39:01.461Z,939.95
2023-05-19T08:40:02.340Z,939.9
2023-05-19T08:41:02.568Z,939.93
2023-05-19T08:42:03.481Z,939.88
2023-05-19T08:43:04.163Z,939.89
2023-05-19T08:44:04.276Z,939.91
2023-05-19T08:45:05.145Z,939.9
2023-05-19T08:46:05.762Z,939.85
2023-05-19T08:47:06.037Z,939.86
2023-05-19T08:48:06.891Z,939.84
2023-05-19T08:49:07.656Z,939.87
2023-05-19T08:50:08.325Z,939.84
2023-05-19T08:51:08.603Z,939.84
2023-05-19T08:52:09.534Z,939.84
2023-05-19T08:53:18.230Z,939.84
2023-05-19T08:54:10.830Z,939.84
2023-05-19T08:55:11.498Z,939.84
2023-05-19T08:56:12.565Z,939.82
2023-05-19T08:57:12.852Z,939.83
2023-05-19T08:58:12.948Z,939.86
2023-05-19T08:59:13.862Z,939.83
2023-05-19T09:00:14.951Z,939.82
2023-05-19T09:01:15.742Z,939.82
2023-05-19T09:02:15.921Z,939.78
2023-05-19T09:03:22.950Z,939.81
2023-05-19T09:04:17.501Z,939.81
2023-05-19T09:05:18.306Z,939.82
2023-05-19T09:06:18.950Z,939.83
2023-05-19T09:07:19.785Z,939.86
2023-05-19T09:08:19.914Z,939.85
2023-05-19T09:09:20.648Z,939.82
2023-05-19T09:10:21.667Z,939.85
2023-05-19T09:11:21.926Z,939.85
2023-05-19T09:12:22.856Z,939.84
2023-05-19T09:13:23.432Z,939.83
2023-05-19T09:14:24.154Z,939.8
2023-05-19T09:15:24.861Z,939.83
2023-05-19T09:16:27.090Z,939.86
2023-05-19T09:17:26.253Z,939.88
2023-05-19T09:18:26.678Z,939.89
2023-05-19T09:19:27.744Z,939.87
2023-05-19T09:20:27.862Z,939.9
2023-05-19T09:21:28.569Z,939.93
2023-05-19T09:22:29.274Z,939.92
2023-05-19T09:23:30.168Z,939.89
2023-05-19T09:24:30.677Z,939.89
2023-05-19T09:25:31.248Z,939.84
2023-05-19T09:26:31.426Z,939.84
2023-05-19T09:27:32.028Z,939.83
2023-05-19T09:28:32.703Z,939.81
2023-05-19T09:29:32.982Z,939.82
2023-05-19T09:30:33.662Z,939.78
2023-05-19T09:31:34.766Z,939.79
2023-05-19T09:32:35.025Z,939.78
2023-05-19T09:33:35.165Z,939.75
2023-05-19T09:34:36.112Z,939.75
2023-05-19T09:35:37.079Z,939.74
2023-05-19T09:36:37.204Z,939.75
2023-05-19T09:37:37.317Z,939.73
2023-05-19T09:38:38.208Z,939.75
2023-05-19T09:39:38.938Z,939.73
2023-05-19T09:40:39.638Z,939.73
2023-05-19T09:41:39.890Z,939.74
2023-05-19T09:42:40.583Z,939.73
2023-05-19T09:43:41.493Z,939.74
2023-05-19T09:44:42.169Z,939.73
2023-05-19T09:45:42.703Z,939.75
2023-05-19T09:46:42.972Z,939.68
2023-05-19T09:47:43.936Z,939.66
2023-05-19T09:48:44.688Z,939.68
2023-05-19T09:49:45.353Z,939.68
2023-05-19T09:50:46.080Z,939.7
2023-05-19T09:51:46.034Z,939.72
2023-05-19T09:52:46.985Z,939.66
2023-05-19T09:53:47.894Z,939.7
2023-05-19T09:54:48.722Z,939.71
2023-05-19T09:55:48.852Z,939.69
2023-05-19T09:56:49.928Z,939.7
2023-05-19T09:57:50.720Z,939.69
2023-05-19T09:58:51.465Z,939.71
2023-05-19T09:59:52.030Z,939.72
2023-05-19T10:00:52.757Z,939.68
2023-05-19T10:01:53.680Z,939.7
2023-05-19T10:02:54.266Z,939.71
2023-05-19T10:03:54.870Z,939.7
2023-05-19T10:04:55.229Z,939.7
2023-05-19T10:05:55.527Z,939.71
2023-05-19T10:06:55.738Z,939.73
2023-05-19T10:07:56.340Z,939.66
2023-05-19T10:08:57.331Z,939.66
2023-05-19T10:09:58.712Z,939.66
2023-05-19T10:10:59.072Z,939.69
2023-05-19T10:11:59.918Z,939.68
2023-05-19T10:13:00.431Z,939.65
2023-05-19T10:14:01.229Z,939.64
2023-05-19T10:15:01.710Z,939.64
2023-05-19T10:16:02.368Z,939.65
2023-05-19T10:17:02.805Z,939.64
2023-05-19T10:18:03.194Z,939.64
2023-05-19T10:19:03.689Z,939.62
2023-05-19T10:20:04.074Z,939.64
2023-05-19T10:21:04.799Z,939.6
2023-05-19T10:22:04.980Z,939.59
2023-05-19T10:23:05.517Z,939.55
2023-05-19T10:24:06.054Z,939.55
2023-05-19T10:25:06.173Z,939.52
2023-05-19T10:26:07.109Z,939.52
2023-05-19T10:27:07.273Z,939.55
2023-05-19T10:28:07.674Z,939.51
2023-05-19T10:29:08.308Z,939.5
2023-05-19T10:30:10.050Z,939.49
2023-05-19T10:31:08.608Z,939.47
2023-05-19T10:32:09.629Z,939.53
2023-05-19T10:33:09.750Z,939.53
2023-05-19T10:34:09.867Z,939.54
2023-05-19T10:35:10.695Z,939.54
2023-05-19T10:36:11.474Z,939.51
2023-05-19T10:37:12.394Z,939.52
2023-05-19T10:38:13.018Z,939.47
2023-05-19T10:39:13.910Z,939.5
2023-05-19T10:40:14.837Z,939.5
2023-05-19T10:41:14.946Z,939.49
2023-05-19T10:42:15.903Z,939.46
2023-05-19T10:43:16.271Z,939.46
2023-05-19T10:44:16.498Z,939.46
2023-05-19T10:45:16.681Z,939.45
2023-05-19T10:46:17.042Z,939.43
2023-05-19T10:47:17.354Z,939.4
2023-05-19T10:48:17.678Z,939.39
2023-05-19T10:49:17.794Z,939.4
2023-05-19T10:50:17.995Z,939.39
2023-05-19T10:51:18.932Z,939.38
2023-05-19T10:52:19.023Z,939.35
2023-05-19T10:53:19.953Z,939.27
2023-05-19T10:54:20.884Z,939.33
2023-05-19T10:55:21.586Z,939.31
2023-05-19T10:56:22.322Z,939.31
2023-05-19T10:57:22.679Z,939.31
2023-05-19T10:58:23.037Z,939.3
2023-05-19T10:59:23.740Z,939.28
2023-05-19T11:00:24.219Z,939.32
2023-05-19T11:01:24.996Z,939.33
2023-05-19T11:02:25.410Z,939.34
2023-05-19T11:03:26.044Z,939.35
2023-05-19T11:04:26.742Z,939.35
2023-05-19T11:05:27.725Z,939.38
2023-05-19T11:06:28.182Z,939.28
2023-05-19T11:07:29.108Z,939.26
2023-05-19T11:08:29.556Z,939.26
2023-05-19T11:09:39.832Z,939.22
2023-05-19T11:10:30.260Z,939.2
2023-05-19T11:12:31.647Z,939.22
2023-05-19T11:13:32.404Z,939.23
2023-05-19T11:14:33.329Z,939.25
2023-05-19T11:15:34.194Z,939.27
2023-05-19T11:16:34.256Z,939.24
2023-05-19T11:17:35.299Z,939.24
2023-05-19T11:18:35.889Z,939.2
2023-05-19T11:19:36.711Z,939.24
2023-05-19T11:20:37.250Z,939.25
2023-05-19T11:21:38.324Z,939.3
2023-05-19T11:22:39.233Z,939.29
2023-05-19T11:23:40.156Z,939.33
2023-05-19T11:24:40.618Z,939.35
2023-05-19T11:25:41.576Z,939.35
2023-05-19T11:26:42.198Z,939.39
2023-05-19T11:27:42.414Z,939.34
2023-05-19T11:28:42.834Z,939.36
2023-05-19T11:29:43.739Z,939.35
2023-05-19T11:30:43.877Z,939.34
2023-05-19T11:31:44.045Z,939.34
2023-05-19T11:32:44.989Z,939.34
2023-05-19T11:33:45.169Z,939.32
2023-05-19T11:34:45.873Z,939.32
2023-05-19T11:35:46.698Z,939.3
2023-05-19T11:36:47.247Z,939.3
2023-05-19T11:37:47.763Z,939.28
2023-05-19T11:38:48.840Z,939.27
2023-05-19T11:39:49.747Z,939.26
2023-05-19T11:40:50.231Z,939.27
2023-05-19T11:41:51.276Z,939.2
2023-05-19T11:42:52.147Z,939.22
2023-05-19T11:43:52.285Z,939.24
2023-05-19T11:44:53.013Z,939.24
2023-05-19T11:45:53.782Z,939.26
2023-05-19T11:46:54.761Z,939.28
2023-05-19T11:48:01.821Z,939.28
2023-05-19T11:48:56.422Z,939.28
2023-05-19T11:49:56.829Z,939.23
2023-05-19T11:50:57.189Z,939.22
2023-05-19T11:51:57.721Z,939.22
2023-05-19T11:52:58.545Z,939.23
2023-05-19T11:53:59.418Z,939.23
2023-05-19T11:55:00.165Z,939.21
2023-05-19T11:56:00.284Z,939.23
2023-05-19T11:57:00.509Z,939.23
2023-05-19T11:58:04.391Z,939.24
2023-05-19T11:59:01.517Z,939.24
2023-05-19T12:00:02.211Z,939.24
2023-05-19T12:01:02.915Z,939.27
2023-05-19T12:02:03.498Z,939.29
2023-05-19T12:03:04.474Z,939.29
2023-05-19T12:04:05.352Z,939.29
2023-05-19T12:05:05.342Z,939.3
2023-05-19T12:06:05.711Z,939.26
2023-05-19T12:07:06.310Z,939.27
2023-05-19T12:08:07.216Z,939.2
2023-05-19T12:09:08.300Z,939.21
2023-05-19T12:10:09.218Z,939.21
2023-05-19T12:11:10.119Z,939.26
2023-05-19T12:12:11.142Z,939.25
2023-05-19T12:13:11.498Z,939.25
2023-05-19T12:14:12.029Z,939.29
2023-05-19T12:15:12.607Z,939.21
2023-05-19T12:16:13.520Z,939.24
2023-05-19T12:17:14.257Z,939.25
2023-05-19T12:18:14.386Z,939.2
2023-05-19T12:19:15.312Z,939.22
2023-05-19T12:20:16.287Z,939.21
2023-05-19T12:21:16.462Z,939.23
2023-05-19T12:22:17.393Z,939.24
2023-05-19T12:23:18.325Z,939.27
2023-05-19T12:24:19.215Z,939.23
2023-05-19T12:25:20.110Z,939.21
2023-05-19T12:26:20.725Z,939.18
2023-05-19T12:27:21.639Z,939.21
2023-05-19T12:28:21.904Z,939.22
2023-05-19T12:29:22.625Z,939.19
2023-05-19T12:30:22.939Z,939.16
2023-05-19T12:31:23.681Z,939.14
2023-05-19T12:32:23.867Z,939.18
2023-05-19T12:33:24.089Z,939.22
2023-05-19T12:34:24.611Z,939.21
2023-05-19T12:35:25.339Z,939.2
2023-05-19T12:36:26.110Z,939.2
2023-05-19T12:37:27.011Z,939.19
2023-05-19T12:38:27.940Z,939.17
2023-05-19T12:39:28.530Z,939.18